Time;durP1;ratioP1;P1;durP2;ratioP2;P2;SDS_P1;SDS_P2;PMS_P1;PMS_P2;Temp;Humidity;BMP_temperature;BMP_pressure;BME280_temperature;BME280_humidity;BME280_pressure;Samples;Min_cycle;Max_cycle;Signal;HPM_P1;HPM_P2
2021/12/25 00:00:39;;;;;;;23.40;12.18;;;;;;;4.60;100.00;100609.81;4982410;28;20541;-73
2021/12/25 00:03:07;;;;;;;25.80;12.13;;;;;;;4.57;100.00;100615.13;4988967;28;20520;-73
2021/12/25 00:05:35;;;;;;;21.17;10.45;;;;;;;4.55;100.00;100613.41;4990230;28;20487;-73
2021/12/25 00:08:03;;;;;;;22.90;11.25;;;;;;;4.43;100.00;100624.97;4990623;28;20054;-75
2021/12/25 00:10:32;;;;;;;21.23;10.43;;;;;;;4.33;100.00;100624.19;4991389;28;20054;-74
2021/12/25 00:13:00;;;;;;;21.30;11.07;;;;;;;4.19;100.00;100619.03;4989821;28;20050;-74
2021/12/25 00:15:28;;;;;;;23.00;11.07;;;;;;;4.17;100.00;100615.53;4993259;28;20149;-73
2021/12/25 00:17:58;;;;;;;23.55;11.75;;;;;;;4.01;100.00;100619.19;4993346;28;20097;-73
2021/12/25 00:20:26;;;;;;;24.55;11.65;;;;;;;3.91;100.00;100619.25;4991968;28;20064;-75
2021/12/25 00:22:53;;;;;;;29.63;12.23;;;;;;;3.88;100.00;100621.06;4989552;28;20094;-75
2021/12/25 00:25:22;;;;;;;22.98;9.90;;;;;;;3.92;100.00;100617.50;4993676;28;20100;-75
2021/12/25 00:27:58;;;;;;;29.77;13.38;;;;;;;3.79;100.00;100624.63;4989949;28;20053;-74
2021/12/25 00:30:34;;;;;;;32.10;12.98;;;;;;;3.74;100.00;100622.03;4991223;28;20229;-75
2021/12/25 00:33:17;;;;;;;31.13;13.40;;;;;;;3.68;100.00;100619.44;4995819;28;20061;-74
2021/12/25 00:35:46;;;;;;;33.55;14.80;;;;;;;3.69;100.00;100633.50;4989922;28;20065;-71
2021/12/25 00:38:17;;;;;;;30.27;14.45;;;;;;;3.69;100.00;100623.81;4993218;28;20046;-70
2021/12/25 00:40:46;;;;;;;37.45;15.02;;;;;;;3.58;100.00;100623.03;4973263;28;21647;-70
2021/12/25 00:43:17;;;;;;;35.25;13.63;;;;;;;3.58;100.00;100624.81;4992994;28;20309;-70
2021/12/25 00:45:46;;;;;;;35.15;14.82;;;;;;;3.57;100.00;100626.56;4973702;28;20553;-71
2021/12/25 00:48:18;;;;;;;32.95;16.17;;;;;;;3.50;100.00;100624.84;4973109;28;20127;-70
2021/12/25 00:50:50;;;;;;;31.95;14.90;;;;;;;3.45;100.00;100627.50;4993086;28;20054;-70
2021/12/25 00:53:26;;;;;;;42.42;17.20;;;;;;;3.44;100.00;100624.88;4991871;28;20054;-70
2021/12/25 00:55:57;;;;;;;44.72;17.92;;;;;;;3.34;100.00;100624.94;4990420;28;20148;-70
2021/12/25 00:58:26;;;;;;;38.05;14.88;;;;;;;3.36;100.00;100623.16;4992293;28;20392;-69
2021/12/25 01:00:56;;;;;;;37.35;15.70;;;;;;;3.33;100.00;100622.31;4989413;28;20192;-69
2021/12/25 01:03:27;;;;;;;42.40;15.70;;;;;;;3.29;100.00;100618.81;4992780;28;20053;-68
2021/12/25 01:05:58;;;;;;;45.90;18.00;;;;;;;3.30;100.00;100627.59;4972091;28;20149;-70
2021/12/25 01:08:30;;;;;;;44.20;15.15;;;;;;;3.33;100.00;100638.13;4989212;28;20053;-70
2021/12/25 01:11:00;;;;;;;43.92;16.55;;;;;;;3.29;100.00;100642.56;4990486;28;20066;-70
2021/12/25 01:13:34;;;;;;;44.67;17.50;;;;;;;3.25;100.00;100635.56;4972786;28;20054;-70
2021/12/25 01:16:17;;;;;;;48.08;18.27;;;;;;;3.30;100.00;100635.50;4993184;28;20136;-74
2021/12/25 01:21:54;;;;;;;39.55;14.68;;;;;;;3.27;100.00;100622.34;4991848;28;20058;-70
2021/12/25 01:27:48;;;;;;;41.85;16.70;;;;;;;3.32;100.00;100625.81;4970739;28;20054;-70
2021/12/25 01:30:19;;;;;;;43.00;17.70;;;;;;;3.29;100.00;100633.78;4987711;28;20054;-70
2021/12/25 01:33:29;;;;;;;39.42;17.17;;;;;;;3.29;100.00;100624.09;4972805;28;20062;-70
2021/12/25 01:38:56;;;;;;;45.72;16.17;;;;;;;3.31;100.00;100624.97;4991049;28;20057;-70
2021/12/25 01:41:54;;;;;;;38.80;17.65;;;;;;;3.29;100.00;100621.47;4970999;28;20054;-70
2021/12/25 01:49:58;;;;;;;39.67;15.30;;;;;;;3.19;100.00;100622.41;4992838;28;20053;-70
2021/12/25 01:52:35;;;;;;;34.90;15.38;;;;;;;3.19;100.00;100622.41;4990240;28;20053;-70
2021/12/25 01:55:09;;;;;;;30.65;13.63;;;;;;;3.19;100.00;100627.66;4990646;28;20098;-70
2021/12/25 01:57:43;;;;;;;34.45;14.25;;;;;;;3.22;100.00;100624.13;4990555;28;20136;-70
2021/12/25 02:00:17;;;;;;;30.17;13.57;;;;;;;3.18;100.00;100623.28;4991778;28;20069;-70
2021/12/25 02:02:51;;;;;;;31.55;13.32;;;;;;;3.14;100.00;100618.91;4974845;28;20051;-70
2021/12/25 02:05:21;;;;;;;33.20;13.43;;;;;;;3.10;100.00;100625.97;4992421;28;20220;-74
2021/12/25 02:07:51;;;;;;;27.50;13.00;;;;;;;3.11;100.00;100627.69;4992816;28;20053;-75
2021/12/25 02:10:20;;;;;;;24.73;10.90;;;;;;;3.05;100.00;100633.00;4990898;28;20053;-75
2021/12/25 02:12:48;;;;;;;31.20;13.20;;;;;;;3.00;100.00;100629.53;4989233;28;20137;-75
2021/12/25 02:15:37;;;;;;;27.83;11.25;;;;;;;2.91;100.00;100632.19;4991916;28;20084;-75
2021/12/25 02:18:12;;;;;;;24.60;11.45;;;;;;;2.93;100.00;100630.44;4990114;28;20060;-74
2021/12/25 02:20:49;;;;;;;25.58;10.95;;;;;;;2.96;100.00;100630.41;4988974;28;20594;-75
2021/12/25 02:23:22;;;;;;;21.85;11.05;;;;;;;2.87;100.00;100626.03;4992619;28;20054;-70
2021/12/25 02:25:54;;;;;;;25.25;11.02;;;;;;;2.92;100.00;100634.81;4988608;28;20540;-70
2021/12/25 02:28:26;;;;;;;22.52;9.15;;;;;;;2.93;100.00;100636.56;4987828;28;20112;-68
2021/12/25 02:31:02;;;;;;;22.05;9.93;;;;;;;2.85;100.00;100642.75;4990481;28;20507;-70
2021/12/25 02:33:31;;;;;;;22.48;10.30;;;;;;;2.82;100.00;100635.72;4991336;28;20072;-68
2021/12/25 02:36:14;;;;;;;26.15;12.82;;;;;;;2.82;100.00;100638.38;4973745;28;20058;-70
2021/12/25 02:38:45;;;;;;;24.92;12.13;;;;;;;2.68;100.00;100646.31;4989491;28;20088;-70
2021/12/25 02:41:17;;;;;;;28.90;12.02;;;;;;;2.65;100.00;100642.81;4987762;28;20045;-70
2021/12/25 02:43:46;;;;;;;23.95;11.50;;;;;;;2.56;100.00;100641.94;4990037;28;20085;-75
2021/12/25 02:46:16;;;;;;;28.45;13.10;;;;;;;2.56;100.00;100651.63;4987956;28;20755;-74
2021/12/25 02:48:44;;;;;;;25.35;11.70;;;;;;;2.53;100.00;100654.25;4987934;28;20128;-75
2021/12/25 02:51:13;;;;;;;24.90;10.55;;;;;;;2.46;100.00;100657.78;4987199;28;20076;-74
2021/12/25 02:53:41;;;;;;;26.63;11.70;;;;;;;2.51;100.00;100656.03;4987993;28;20249;-75
2021/12/25 02:56:12;;;;;;;23.02;11.43;;;;;;;2.46;100.00;100658.66;4984526;28;20374;-71
2021/12/25 02:58:42;;;;;;;23.88;10.85;;;;;;;2.44;100.00;100660.41;4987496;28;20481;-70
2021/12/25 03:01:15;;;;;;;24.50;11.60;;;;;;;2.37;100.00;100662.19;4991309;28;20180;-70
2021/12/25 03:03:44;;;;;;;;;;;;;;;2.31;100.00;100659.53;4986655;28;20565;-69
2021/12/25 03:06:15;;;;;;;28.77;12.45;;;;;;;2.21;100.00;100661.34;4991358;28;19992;-70
2021/12/25 03:08:47;;;;;;;23.98;11.52;;;;;;;2.22;100.00;100660.44;4986677;28;20310;-70
2021/12/25 03:11:14;;;;;;;23.10;11.02;;;;;;;2.20;100.00;100666.59;4990472;28;20509;-70
2021/12/25 03:13:46;;;;;;;19.85;9.63;;;;;;;2.15;100.00;100663.97;4989737;28;20056;-75
2021/12/25 03:16:14;;;;;;;23.23;8.55;;;;;;;2.17;100.00;100662.19;4990652;28;20123;-75
2021/12/25 03:18:48;;;;;;;18.50;9.65;;;;;;;2.11;100.00;100679.75;4988899;28;20081;-75
2021/12/25 03:21:21;;;;;;;20.95;10.55;;;;;;;2.10;100.00;100672.75;4969475;28;20061;-69
2021/12/25 03:23:52;;;;;;;24.60;10.23;;;;;;;2.00;100.00;100675.34;4989513;28;20054;-74
2021/12/25 03:26:21;;;;;;;25.35;9.90;;;;;;;1.96;100.00;100683.25;4990129;28;20058;-74
2021/12/25 03:28:53;;;;;;;22.40;10.18;;;;;;;2.03;100.00;100685.03;4989294;28;20092;-74
2021/12/25 03:31:22;;;;;;;21.85;9.48;;;;;;;2.01;100.00;100689.38;4988713;28;20137;-74
2021/12/25 03:33:53;;;;;;;14.93;6.97;;;;;;;2.02;100.00;100685.88;4990501;28;20197;-74
2021/12/25 03:36:23;;;;;;;22.08;9.90;;;;;;;1.89;100.00;100692.91;4989283;28;20058;-74
2021/12/25 03:38:54;;;;;;;17.58;8.25;;;;;;;1.95;100.00;100694.66;4992156;28;20081;-70
2021/12/25 03:41:27;;;;;;;23.52;10.90;;;;;;;1.91;100.00;100692.88;4975272;28;20050;-70
2021/12/25 03:44:01;;;;;;;22.25;9.50;;;;;;;1.87;100.00;100692.00;4975959;28;20062;-70
2021/12/25 03:46:29;;;;;;;21.55;10.65;;;;;;;1.96;100.00;100701.66;4988872;28;20104;-70
2021/12/25 03:49:05;;;;;;;21.55;9.77;;;;;;;1.96;100.00;100699.03;4988872;28;20058;-69
2021/12/25 04:00:02;;;;;;;26.25;11.80;;;;;;;1.81;100.00;100703.41;4993584;28;20077;-74
2021/12/25 04:02:37;;;;;;;21.52;9.07;;;;;;;1.86;100.00;100719.22;4990132;28;20054;-74
2021/12/25 04:05:13;;;;;;;24.75;10.68;;;;;;;1.82;100.00;100709.53;4993045;28;20060;-74
2021/12/25 04:07:59;;;;;;;25.27;11.05;;;;;;;1.78;100.00;100713.91;4991503;28;20575;-72
2021/12/25 04:10:28;;;;;;;31.00;12.40;;;;;;;1.74;100.00;100711.28;4993112;28;20074;-72
2021/12/25 04:12:56;;;;;;;29.90;12.73;;;;;;;1.80;100.00;100717.44;4990337;28;20072;-68
2021/12/25 04:15:25;;;;;;;27.10;10.90;;;;;;;1.75;100.00;100721.81;4993091;28;20058;-68
2021/12/25 04:17:53;;;;;;;30.70;13.00;;;;;;;1.67;100.00;100720.94;4995008;28;20546;-68
2021/12/25 04:20:24;;;;;;;26.73;11.25;;;;;;;1.66;100.00;100730.56;4976510;28;20165;-68
2021/12/25 04:23:03;;;;;;;32.65;13.68;;;;;;;1.65;100.00;100727.91;4990798;28;20058;-68
2021/12/25 04:25:34;;;;;;;32.97;13.70;;;;;;;1.70;100.00;100730.56;4974833;28;20296;-68
2021/12/25 04:28:12;;;;;;;28.05;12.43;;;;;;;1.71;100.00;100732.34;4993084;28;20061;-68
2021/12/25 04:30:59;;;;;;;31.25;13.85;;;;;;;1.75;100.00;100731.47;4988468;28;20126;-73
2021/12/25 05:03:54;;;;;;;24.38;12.13;;;;;;;1.45;100.00;100756.81;4990868;28;20112;-74
2021/12/25 05:06:23;;;;;;;31.85;12.93;;;;;;;1.43;100.00;100759.44;4991375;28;20057;-75
2021/12/25 05:08:52;;;;;;;29.42;12.65;;;;;;;1.38;100.00;100761.16;4991604;28;20050;-75
2021/12/25 05:11:22;;;;;;;21.98;11.10;;;;;;;1.41;100.00;100776.91;4994406;28;20060;-72
2021/12/25 05:13:53;;;;;;;30.85;12.73;;;;;;;1.42;100.00;100767.31;4990961;28;20078;-74
2021/12/25 05:16:22;;;;;;;31.52;12.32;;;;;;;1.37;100.00;100776.94;4995807;28;20123;-74
2021/12/25 05:18:51;;;;;;;35.58;13.27;;;;;;;1.34;100.00;100782.16;4988130;28;20187;-74
2021/12/25 05:21:19;;;;;;;31.80;12.55;;;;;;;1.33;100.00;100773.41;4992201;28;20058;-74
2021/12/25 05:23:48;;;;;;;33.60;13.95;;;;;;;1.35;100.00;100776.03;4993138;28;20121;-74
2021/12/25 05:26:17;;;;;;;30.20;13.15;;;;;;;1.35;100.00;100786.56;4991101;28;20561;-74
2021/12/25 05:28:57;;;;;;;27.20;13.18;;;;;;;1.36;100.00;100780.41;4993383;28;20528;-74
2021/12/25 05:31:26;;;;;;;34.78;15.40;;;;;;;1.33;100.00;100783.94;4990697;28;21165;-73
2021/12/25 05:33:55;;;;;;;28.70;11.70;;;;;;;1.34;100.00;100785.66;4992214;28;20046;-74
2021/12/25 05:36:24;;;;;;;31.00;13.27;;;;;;;1.24;100.00;100791.75;4990054;28;20506;-74
2021/12/25 05:38:56;;;;;;;40.08;14.90;;;;;;;1.20;100.00;100789.97;4992701;28;20395;-75
2021/12/25 05:41:28;;;;;;;31.13;13.85;;;;;;;1.26;100.00;100797.88;4990909;28;20141;-75
2021/12/25 05:43:59;;;;;;;31.70;14.05;;;;;;;1.27;100.00;100794.41;4990951;28;20054;-75
2021/12/25 05:46:29;;;;;;;37.22;15.43;;;;;;;1.10;100.00;100802.19;4988109;28;20056;-76
2021/12/25 05:48:58;;;;;;;34.55;15.15;;;;;;;1.10;100.00;100799.56;4992694;28;20144;-75
2021/12/25 05:51:27;;;;;;;33.92;13.63;;;;;;;1.14;100.00;100796.06;4989982;28;20132;-73
2021/12/25 05:53:55;;;;;;;30.45;14.15;;;;;;;1.09;100.00;100800.41;4991098;28;20046;-75
2021/12/25 05:56:25;;;;;;;29.52;13.57;;;;;;;1.10;100.00;100804.81;4990903;28;20058;-75
2021/12/25 05:58:53;;;;;;;33.22;15.02;;;;;;;1.03;100.00;100805.66;4990072;28;20392;-73
2021/12/25 06:01:22;;;;;;;29.20;11.77;;;;;;;1.06;100.00;100805.69;4992094;28;20060;-74
2021/12/25 06:03:50;;;;;;;33.60;14.60;;;;;;;1.04;100.00;100817.91;4991324;28;20141;-73
2021/12/25 06:06:24;;;;;;;28.88;12.70;;;;;;;1.05;100.00;100812.66;4994027;28;20064;-72
2021/12/25 06:08:53;;;;;;;32.88;14.43;;;;;;;1.02;100.00;100819.66;4987649;28;20223;-69
2021/12/25 06:11:24;;;;;;;33.88;14.68;;;;;;;0.90;100.00;100812.56;4991177;28;20058;-69
2021/12/25 06:14:05;;;;;;;30.92;13.40;;;;;;;0.98;100.00;100823.13;4989577;28;20167;-68
2021/12/25 06:16:42;;;;;;;29.05;11.02;;;;;;;0.93;100.00;100829.22;4990140;28;20511;-70
2021/12/25 06:19:10;;;;;;;31.92;13.35;;;;;;;0.81;100.00;100821.25;4988510;28;20137;-73
2021/12/25 06:21:38;;;;;;;26.02;11.63;;;;;;;0.79;100.00;100827.38;4990839;28;20057;-75
2021/12/25 06:24:06;;;;;;;30.02;11.95;;;;;;;0.72;100.00;100829.06;4994275;28;20046;-73
2021/12/25 06:26:35;;;;;;;24.67;11.05;;;;;;;0.67;100.00;100834.28;4988256;28;20058;-73
2021/12/25 06:29:03;;;;;;;21.90;10.07;;;;;;;0.64;100.00;100839.50;4993053;28;20136;-73
2021/12/25 06:31:32;;;;;;;27.52;12.00;;;;;;;0.56;100.00;100846.44;4990905;28;20045;-75
2021/12/25 06:34:03;;;;;;;24.33;11.65;;;;;;;0.58;100.00;100835.94;4989975;28;20076;-75
2021/12/25 06:36:31;;;;;;;29.83;11.77;;;;;;;0.49;100.00;100834.13;4987399;28;20177;-75
2021/12/25 06:38:59;;;;;;;25.17;11.68;;;;;;;0.53;100.00;100838.53;4991996;28;20057;-74
2021/12/25 06:41:28;;;;;;;26.02;10.43;;;;;;;0.57;100.00;100837.69;4990883;28;20149;-74
2021/12/25 06:43:56;;;;;;;28.58;11.68;;;;;;;0.54;100.00;100841.16;4990585;28;20161;-73
2021/12/25 06:46:27;;;;;;;21.17;9.45;;;;;;;0.52;100.00;100837.66;4990044;28;20100;-75
2021/12/25 06:48:58;;;;;;;23.83;10.05;;;;;;;0.54;100.00;100838.53;4992234;28;20061;-75
2021/12/25 06:51:28;;;;;;;21.65;8.82;;;;;;;0.48;100.00;100837.63;4990171;28;20140;-73
2021/12/25 06:53:56;;;;;;;19.40;8.63;;;;;;;0.46;100.00;100839.34;4986821;28;20058;-73
2021/12/25 06:56:24;;;;;;;19.17;7.55;;;;;;;0.41;100.00;100838.41;4988978;28;20054;-73
2021/12/25 06:58:52;;;;;;;18.02;8.10;;;;;;;0.33;100.00;100854.97;4989646;28;20091;-72
2021/12/25 07:01:22;;;;;;;17.60;7.72;;;;;;;0.25;100.00;100858.38;4991790;28;20092;-71
2021/12/25 07:06:45;;;;;;;15.40;6.88;;;;;;;0.08;100.00;100861.69;4987953;28;20082;-70
2021/12/25 07:09:14;;;;;;;12.50;5.72;;;;;;;-0.05;100.00;100865.03;4986211;28;20345;-71
2021/12/25 07:11:45;;;;;;;11.13;5.32;;;;;;;-0.19;100.00;100878.00;4989584;28;20372;-70
2021/12/25 07:14:14;;;;;;;8.90;5.35;;;;;;;-0.18;100.00;100876.28;4990074;28;20061;-70
2021/12/25 07:16:45;;;;;;;15.68;6.82;;;;;;;-0.20;100.00;100877.13;4977460;28;20072;-73
2021/12/25 07:19:21;;;;;;;11.20;4.80;;;;;;;-0.22;100.00;100891.09;4990948;28;20053;-73
2021/12/25 07:21:53;;;;;;;7.55;4.68;;;;;;;-0.24;100.00;100880.59;4990046;28;20058;-73
2021/12/25 07:24:24;;;;;;;8.40;3.80;;;;;;;-0.26;100.00;100879.66;4991842;28;20529;-75
2021/12/25 07:26:56;;;;;;;12.57;5.07;;;;;;;-0.36;100.00;100893.50;4987598;28;20092;-77
2021/12/25 07:29:24;;;;;;;8.40;4.28;;;;;;;-0.36;100.00;100895.25;4991074;28;20496;-72
2021/12/25 07:31:58;;;;;;;6.40;3.47;;;;;;;-0.40;100.00;100892.59;4989852;28;20109;-75
2021/12/25 07:34:26;;;;;;;10.27;3.90;;;;;;;-0.43;100.00;100887.28;4987270;28;20080;-75
2021/12/25 07:36:56;;;;;;;6.55;3.22;;;;;;;-0.51;100.00;100896.81;4986178;28;20057;-71
2021/12/25 07:39:24;;;;;;;6.22;3.45;;;;;;;-0.55;100.00;100902.88;4989748;28;20085;-71
2021/12/25 07:41:55;;;;;;;7.22;3.72;;;;;;;-0.59;100.00;100904.56;4989506;28;20070;-70
2021/12/25 07:44:27;;;;;;;7.90;3.58;;;;;;;-0.70;100.00;100905.25;4989843;28;20502;-70
2021/12/25 07:47:09;;;;;;;8.45;4.00;;;;;;;-0.74;100.00;100913.94;4969174;28;20112;-71
2021/12/25 07:49:39;;;;;;;8.63;3.67;;;;;;;-0.77;100.00;100923.53;4990387;28;20092;-71
2021/12/25 07:52:13;;;;;;;7.95;3.30;;;;;;;-0.79;100.00;100927.84;4987539;28;20141;-71
2021/12/25 07:54:58;;;;;;;7.82;3.10;;;;;;;-0.85;100.00;100922.53;4990713;28;20054;-69
2021/12/25 07:57:26;;;;;;;5.63;3.33;;;;;;;-0.98;100.00;100942.38;4986311;28;20097;-69
2021/12/25 07:59:55;;;;;;;5.50;2.95;;;;;;;-1.00;100.00;100933.63;4986336;28;20542;-72
2021/12/25 08:02:25;;;;;;;8.65;3.70;;;;;;;-1.00;100.00;100936.25;4992922;28;20104;-71
2021/12/25 08:04:54;;;;;;;7.53;3.75;;;;;;;-1.06;100.00;100933.50;4985398;28;20150;-73
2021/12/25 08:07:23;;;;;;;5.97;2.63;;;;;;;-1.06;100.00;100941.38;4990020;28;20510;-74
2021/12/25 08:09:57;;;;;;;7.15;2.80;;;;;;;-1.14;100.00;100940.38;4987101;28;20081;-75
2021/12/25 08:12:30;;;;;;;5.72;2.88;;;;;;;-1.24;100.00;100944.56;4992005;28;20352;-71
2021/12/25 08:15:05;;;;;;;7.75;2.78;;;;;;;-1.34;100.00;100947.88;4987515;28;20079;-71
2021/12/25 08:17:36;;;;;;;4.03;1.95;;;;;;;-1.29;100.00;100946.22;4992198;28;20506;-69
2021/12/25 08:20:05;;;;;;;6.05;2.75;;;;;;;-1.41;100.00;100951.25;4989636;28;20068;-74
2021/12/25 08:22:35;;;;;;;9.27;3.33;;;;;;;-1.44;100.00;100962.53;4989558;28;20533;-73
2021/12/25 08:25:05;;;;;;;4.80;2.78;;;;;;;-1.38;100.00;100957.41;4990346;28;20065;-74
2021/12/25 08:27:33;;;;;;;5.10;2.65;;;;;;;-1.46;100.00;100965.94;4987228;28;20049;-74
2021/12/25 08:30:00;;;;;;;4.82;3.17;;;;;;;-1.42;100.00;100962.56;4991078;28;20066;-73
2021/12/25 08:32:28;;;;;;;10.77;2.40;;;;;;;-1.49;100.00;100974.63;4989096;28;20081;-74
2021/12/25 08:34:56;;;;;;;6.97;2.83;;;;;;;-1.52;100.00;100975.44;4986021;28;20062;-73
2021/12/25 08:37:26;;;;;;;6.88;3.10;;;;;;;-1.52;100.00;100985.91;4992078;28;20060;-74
2021/12/25 08:39:55;;;;;;;8.85;2.88;;;;;;;-1.64;100.00;100979.56;4993427;28;20065;-73
2021/12/25 08:42:24;;;;;;;3.88;2.53;;;;;;;-1.66;100.00;100984.78;4991860;28;20058;-74
2021/12/25 08:45:04;;;;;;;6.20;2.75;;;;;;;-1.68;100.00;100983.00;4990113;28;20046;-73
2021/12/25 08:47:35;;;;;;;3.95;2.45;;;;;;;-1.69;100.00;100987.31;4992007;28;20058;-69
2021/12/25 08:50:10;;;;;;;6.38;2.85;;;;;;;-1.74;100.00;100986.34;4977211;28;20505;-69
2021/12/25 08:52:42;;;;;;;4.63;2.50;;;;;;;-1.70;100.00;101006.50;4974962;28;20057;-69
2021/12/25 08:55:24;;;;;;;5.97;3.03;;;;;;;-1.74;100.00;101004.66;4981429;28;20080;-69
2021/12/25 08:57:53;;;;;;;5.90;2.72;;;;;;;-1.70;100.00;101010.00;4992239;28;20505;-74
2021/12/25 09:00:21;;;;;;;7.60;2.83;;;;;;;-1.75;100.00;101011.63;4993731;28;20225;-74
2021/12/25 09:02:49;;;;;;;11.55;2.88;;;;;;;-1.75;100.00;101008.16;4991126;28;20096;-74
2021/12/25 09:05:18;;;;;;;4.13;2.50;;;;;;;-1.76;100.00;101022.06;4991033;28;20054;-76
2021/12/25 09:07:46;;;;;;;6.93;2.97;;;;;;;-1.88;100.00;101017.44;4993462;28;20137;-77
2021/12/25 09:10:13;;;;;;;4.25;2.67;;;;;;;-1.90;100.00;101022.66;4990259;28;20141;-77
2021/12/25 09:12:45;;;;;;;5.20;3.30;;;;;;;-1.85;100.00;101017.53;4992284;28;20062;-78
2021/12/25 09:15:13;;;;;;;3.92;2.38;;;;;;;-1.87;100.00;101011.38;4991080;28;20730;-78
2021/12/25 09:17:42;;;;;;;3.50;2.33;;;;;;;-1.86;100.00;101007.03;4991593;28;20136;-79
2021/12/25 09:20:11;;;;;;;5.30;2.58;;;;;;;-1.93;100.00;101008.63;4992455;28;20054;-80
2021/12/25 09:22:39;;;;;;;7.20;2.90;;;;;;;-1.95;100.00;101005.97;4990415;28;20440;-79
2021/12/25 09:25:08;;;;;;;12.10;3.05;;;;;;;-1.93;100.00;101009.50;4993677;28;20081;-81
2021/12/25 09:27:36;;;;;;;3.47;2.55;;;;;;;-1.88;100.00;101009.59;4998441;28;20096;-81
2021/12/25 09:30:08;;;;;;;5.80;2.67;;;;;;;-1.92;100.00;101010.41;4996575;28;20088;-83
2021/12/25 09:32:36;;;;;;;6.35;2.72;;;;;;;-1.82;100.00;101008.84;4977099;28;20116;-82
2021/12/25 09:35:04;;;;;;;6.18;2.97;;;;;;;-1.86;100.00;101010.50;4994867;28;20089;-82
2021/12/25 09:37:32;;;;;;;4.65;2.42;;;;;;;-1.75;100.00;101013.38;4994841;28;20499;-80
2021/12/25 09:40:00;;;;;;;5.10;2.25;;;;;;;-1.71;100.00;101025.66;4995507;28;20050;-81
2021/12/25 09:42:28;;;;;;;7.57;2.90;;;;;;;-1.68;100.00;101015.28;4994408;28;20096;-81
2021/12/25 09:44:56;;;;;;;6.10;2.88;;;;;;;-1.68;100.00;101017.88;4996720;28;20442;-82
2021/12/25 09:47:26;;;;;;;4.63;2.35;;;;;;;-1.53;100.00;101025.19;4993590;28;20054;-81
2021/12/25 09:49:54;;;;;;;6.75;3.03;;;;;;;-1.54;100.00;101023.41;4990256;28;20120;-81
2021/12/25 09:52:26;;;;;;;6.80;2.60;;;;;;;-1.52;100.00;101032.16;4991005;28;20065;-81
2021/12/25 09:54:58;;;;;;;8.57;3.75;;;;;;;-1.51;100.00;101031.31;4991922;28;20147;-81
2021/12/25 09:57:26;;;;;;;7.32;3.53;;;;;;;-1.56;100.00;101030.34;4991201;28;20088;-80
2021/12/25 09:59:54;;;;;;;6.63;3.22;;;;;;;-1.67;100.00;101043.19;4988870;28;20136;-78
2021/12/25 10:02:22;;;;;;;6.45;3.08;;;;;;;-1.63;100.00;101044.16;4990177;28;20560;-78
2021/12/25 10:04:57;;;;;;;10.02;4.05;;;;;;;-1.71;100.00;101049.22;4989231;28;20058;-79
2021/12/25 10:08:07;;;;;;;7.15;3.20;;;;;;;-1.65;100.00;101045.84;4991901;28;20498;-73
2021/12/25 10:10:41;;;;;;;4.30;2.80;;;;;;;-1.68;100.00;101045.78;4989511;28;20104;-79
2021/12/25 10:13:24;;;;;;;8.18;3.88;;;;;;;-1.72;100.00;101053.56;4989813;28;20061;-77
2021/12/25 10:15:55;;;;;;;5.75;2.83;;;;;;;-1.70;100.00;101043.16;4991977;28;20050;-78
2021/12/25 10:18:32;;;;;;;3.88;2.35;;;;;;;-1.75;100.00;101053.50;4990494;28;20054;-79
2021/12/25 10:21:22;;;;;;;6.28;3.30;;;;;;;-1.67;100.00;101051.03;4987928;28;20357;-77
2021/12/25 10:24:05;;;;;;;5.35;2.88;;;;;;;-1.59;100.00;101045.97;4988844;28;20897;-78
2021/12/25 10:26:35;;;;;;;8.75;3.58;;;;;;;-1.45;100.00;101046.25;4989018;28;20423;-78
2021/12/25 10:29:49;;;;;;;9.02;3.90;;;;;;;-1.33;100.00;101054.34;4990174;28;20469;-72
2021/12/25 10:37:13;;;;;;;8.40;3.65;;;;;;;-1.60;100.00;101050.34;4950172;28;20054;-73
2021/12/25 10:39:42;;;;;;;4.63;2.92;;;;;;;-1.46;100.00;101050.63;4947889;28;20190;-76
2021/12/25 10:42:16;;;;;;;4.50;2.53;;;;;;;-1.45;100.00;101044.50;4948706;28;20518;-75
2021/12/25 10:44:44;;;;;;;;;;;;;;;-1.46;100.00;101039.25;4946474;28;20552;-76
2021/12/25 10:47:15;;;;;;;10.25;3.47;;;;;;;-1.26;100.00;101048.41;4946305;28;20080;-77
2021/12/25 10:49:45;;;;;;;4.95;2.97;;;;;;;-1.07;100.00;101039.16;4945149;28;20061;-77
2021/12/25 10:52:19;;;;;;;6.32;2.97;;;;;;;-0.83;100.00;101046.56;4947782;28;20530;-77
2021/12/25 10:54:52;;;;;;;9.15;3.78;;;;;;;-0.67;100.00;101049.47;4947574;28;20467;-76
2021/12/25 11:08:38;;;;;;;3.80;2.10;;;;;;;-0.74;100.00;101040.63;4955274;28;20084;-77
2021/12/25 11:11:08;;;;;;;3.70;2.13;;;;;;;-0.73;100.00;101047.63;4989038;28;20398;-73
2021/12/25 11:13:37;;;;;;;8.07;2.58;;;;;;;-0.79;100.00;101051.00;4992033;28;20080;-74
2021/12/25 11:16:21;;;;;;;2.78;1.88;;;;;;;-0.91;100.00;101040.31;4988540;28;20060;-73
2021/12/25 11:19:00;;;;;;;2.20;1.80;;;;;;;-0.89;100.00;101040.34;4989967;28;20510;-73
2021/12/25 11:21:29;;;;;;;3.88;2.17;;;;;;;-0.92;100.00;101043.78;4989444;28;20058;-74
2021/12/25 11:24:14;;;;;;;4.70;2.13;;;;;;;-1.10;100.00;101046.94;4987944;28;20054;-73
2021/12/25 11:26:46;;;;;;;2.35;1.92;;;;;;;-0.97;100.00;101045.44;4989861;28;20057;-73
2021/12/25 11:29:16;;;;;;;3.28;2.17;;;;;;;-1.01;100.00;101043.63;4988160;28;20104;-73
2021/12/25 11:31:45;;;;;;;4.78;2.38;;;;;;;-1.13;100.00;101036.41;4989776;28;20062;-73
2021/12/25 11:34:13;;;;;;;4.10;2.50;;;;;;;-1.06;100.00;101040.03;4988658;28;20075;-72
2021/12/25 11:36:45;;;;;;;5.80;2.50;;;;;;;-1.08;100.00;101031.28;4992243;28;20092;-73
2021/12/25 11:39:16;;;;;;;4.75;2.20;;;;;;;-1.05;100.00;101039.19;4985111;28;20796;-73
2021/12/25 11:41:44;;;;;;;5.70;1.90;;;;;;;-1.05;100.00;101033.94;4989366;28;20310;-73
2021/12/25 11:44:30;;;;;;;5.25;3.38;;;;;;;-1.08;100.00;101042.63;4987713;28;20517;-74
2021/12/25 11:46:59;;;;;;;4.10;1.90;;;;;;;-0.99;100.00;101027.09;4993576;28;20509;-75
2021/12/25 11:49:27;;;;;;;2.15;1.50;;;;;;;-0.90;100.00;101030.69;4986712;28;20495;-74
2021/12/25 11:51:56;;;;;;;3.33;2.50;;;;;;;-0.77;100.00;101024.81;4989373;28;20339;-72
2021/12/25 11:54:58;;;;;;;2.40;1.60;;;;;;;-0.70;100.00;101028.44;4989493;28;20249;-72
2021/12/25 11:57:49;;;;;;;3.92;1.90;;;;;;;-0.56;100.00;101029.56;4991771;28;20101;-72
2021/12/25 12:00:41;;;;;;;3.15;1.58;;;;;;;-0.39;100.00;101020.22;4988322;28;20129;-75
2021/12/25 12:03:10;;;;;;;2.97;1.75;;;;;;;-0.26;100.00;101009.91;4986933;28;20148;-74
2021/12/25 12:05:38;;;;;;;7.30;2.30;;;;;;;-0.05;100.00;101006.72;4987921;28;20502;-75
2021/12/25 12:08:10;;;;;;;4.72;2.03;;;;;;;0.14;100.00;101018.38;4991036;28;20055;-75
2021/12/25 12:11:00;;;;;;;3.67;2.05;;;;;;;0.34;100.00;101021.22;4993930;28;20356;-75
2021/12/25 12:13:31;;;;;;;2.15;1.90;;;;;;;0.36;100.00;101009.91;4985955;28;20129;-74
2021/12/25 12:16:01;;;;;;;2.92;2.17;;;;;;;0.56;100.00;101011.88;4995358;28;20427;-74
2021/12/25 12:18:36;;;;;;;4.75;2.03;;;;;;;0.57;100.00;100999.66;4995188;28;20092;-74
2021/12/25 12:21:09;;;;;;;3.33;2.00;;;;;;;0.65;100.00;100998.00;4992816;28;20054;-76
2021/12/25 12:23:53;;;;;;;;;;;;;;;0.64;100.00;101001.47;4994015;28;20104;-74
2021/12/25 12:26:55;;;;;;;3.83;2.13;;;;;;;0.59;100.00;101003.16;4991362;28;19925;-75
2021/12/25 12:29:45;;;;;;;1.70;1.58;;;;;;;0.67;100.00;100997.13;4993039;28;20058;-71
2021/12/25 12:32:43;;;;;;;3.13;1.73;;;;;;;0.69;100.00;100997.16;4994282;28;20081;-72
2021/12/25 12:35:32;;;;;;;4.30;1.70;;;;;;;0.69;99.28;100995.38;4978931;28;20082;-71
2021/12/25 12:38:31;;;;;;;2.40;1.90;;;;;;;0.82;99.67;100982.38;4994268;28;20157;-74
2021/12/25 12:41:28;;;;;;;3.97;1.80;;;;;;;0.64;97.70;100985.72;4989978;28;20072;-74
2021/12/25 12:44:06;;;;;;;2.40;1.52;;;;;;;0.69;97.47;100973.50;4965552;28;20053;-73
2021/12/25 12:47:04;;;;;;;3.50;1.83;;;;;;;0.83;97.52;100976.28;4991807;28;20057;-73
2021/12/25 12:49:35;;;;;;;2.80;1.60;;;;;;;0.94;96.64;100966.75;4990090;28;20054;-74
2021/12/25 12:52:25;;;;;;;3.78;1.77;;;;;;;0.85;95.24;100959.69;4990769;28;20054;-73